Charleston Air Force Base-International Airport Charleston US
ICAO: KCHS
IATA: CHS
Category: Large
Scheduled Services: Yes

Elevation: 46 ft
TransAlt. 18000 ft.

Airport Communications:
APP:30.692
APP:119.3
ATIS:124.75
CLNC DEL:118
DEP:120.7
GND:121.9
PMSV METRO:34.46
CONSOLIDATED COMD:134.1
PTD:37.22
ANDERSON RDO:122.2
TWR:126
UNICOM:122.95

KCHS Zoom In..

If you have problems with the map follow the link
https://www.worldairports.se/pages/airport.php?
ICAO=KCHS

Runways:

(A) RW 03 length 7000 ft width 150 ft
---- / hdg 31

(B) RW 15 length 9001 ft width 200 ft
ILS 109.70 / hdg 154

(C) RW 21 length 7000 ft width 150 ft
---- / hdg 211

(D) RW 33 length 9001 ft width 200 ft
ILS 108.90 / hdg 334

Location; KCHS
Day. 26 / Time. 22.56 Zulu
* Altimeter: 30.01
* Temperature: 12° c. 53.6°f.
* Wind from: 260° Speed 06 kn.
Dewpoint: 01° c.
Visibility: 10 Statute Miles.
Clouds: Few 15000 ft.
Clouds: Broken 25000 ft.

KCHS 262256Z 26006KT 10SM FEW150 BKN250 12/01 A3001 RMK AO2 SLP161 T01220006


Wind From 260°
Speed 06 kn.

 
 
jpsmedia worldairports.se 2020   terms of use